Time;durP1;ratioP1;P1;durP2;ratioP2;P2;SDS_P1;SDS_P2;PMS_P1;PMS_P2;Temp;Humidity;BMP_temperature;BMP_pressure;BME280_temperature;BME280_humidity;BME280_pressure;Samples;Min_cycle;Max_cycle;Signal;HPM_P1;HPM_P2
2022/02/14 00:01:45;;;;;;;13.90;4.82;;;9.40;99.90;;;;;;5115560;28;20040;-61
2022/02/14 00:04:11;;;;;;;8.43;3.78;;;9.50;99.90;;;;;;5115445;27;20047;-61
2022/02/14 00:06:37;;;;;;;7.75;4.15;;;9.50;99.90;;;;;;5131399;27;20454;-61
2022/02/14 00:09:03;;;;;;;11.32;4.65;;;9.50;99.90;;;;;;5136394;27;20058;-61
2022/02/14 00:11:29;;;;;;;8.88;3.67;;;9.50;99.90;;;;;;5136613;27;20864;-61
2022/02/14 00:13:54;;;;;;;11.43;4.32;;;9.50;99.90;;;;;;5136550;27;20046;-61
2022/02/14 00:16:20;;;;;;;11.98;4.93;;;9.50;99.90;;;;;;5136215;27;20110;-61
2022/02/14 00:18:46;;;;;;;14.98;4.18;;;9.60;99.90;;;;;;5136060;27;20034;-61
2022/02/14 00:21:11;;;;;;;7.40;3.60;;;9.60;99.90;;;;;;5117733;27;20035;-61
2022/02/14 00:23:37;;;;;;;8.90;3.70;;;9.60;99.90;;;;;;5136227;27;20497;-62
2022/02/14 00:26:03;;;;;;;8.50;4.25;;;9.60;99.90;;;;;;5136197;27;20121;-61
2022/02/14 00:28:29;;;;;;;9.82;4.05;;;9.60;99.90;;;;;;5117539;27;20393;-61
2022/02/14 00:30:55;;;;;;;10.70;4.03;;;9.60;99.90;;;;;;5136104;27;20035;-61
2022/02/14 00:33:21;;;;;;;9.05;4.82;;;9.60;99.90;;;;;;5135911;27;20108;-61
2022/02/14 00:35:47;;;;;;;11.02;4.55;;;9.70;99.90;;;;;;5135947;27;20046;-61
2022/02/14 00:38:14;;;;;;;10.85;4.18;;;9.70;99.90;;;;;;5135924;27;20031;-61
2022/02/14 00:40:40;;;;;;;11.63;4.78;;;9.70;99.90;;;;;;5135555;27;20031;-62
2022/02/14 00:43:05;;;;;;;8.18;3.72;;;9.80;99.90;;;;;;5135675;27;20050;-61
2022/02/14 00:45:31;;;;;;;7.57;3.92;;;9.80;99.90;;;;;;5135614;27;20035;-61
2022/02/14 00:47:57;;;;;;;12.32;3.83;;;9.80;99.90;;;;;;5135805;27;20393;-61
2022/02/14 00:50:23;;;;;;;7.47;3.70;;;9.90;99.90;;;;;;5135533;27;20043;-61
2022/02/14 00:52:49;;;;;;;6.95;3.90;;;9.90;99.90;;;;;;5135599;27;20067;-61
2022/02/14 00:55:16;;;;;;;9.30;3.65;;;9.80;99.90;;;;;;5135611;27;20058;-61
2022/02/14 00:57:42;;;;;;;8.30;3.78;;;9.80;99.90;;;;;;5116462;27;20091;-62
2022/02/14 01:00:11;;;;;;;6.40;3.70;;;9.90;99.90;;;;;;5135162;27;20137;-62
2022/02/14 01:02:37;;;;;;;;;;;9.90;99.90;;;;;;5136048;27;20042;-62
2022/02/14 01:05:03;;;;;;;11.48;3.67;;;9.80;99.90;;;;;;5135510;27;19919;-61
2022/02/14 01:07:29;;;;;;;7.40;3.85;;;9.80;99.90;;;;;;5135496;27;20047;-61
2022/02/14 01:09:55;;;;;;;9.50;3.55;;;9.80;99.90;;;;;;5135803;27;20118;-62
2022/02/14 01:12:21;;;;;;;11.00;4.20;;;9.90;99.90;;;;;;5135042;27;20039;-61
2022/02/14 01:14:47;;;;;;;10.75;4.35;;;9.80;99.90;;;;;;5135409;27;20119;-62
2022/02/14 01:17:12;;;;;;;6.95;3.88;;;9.90;99.90;;;;;;5134780;27;20035;-62
2022/02/14 01:19:38;;;;;;;6.20;3.55;;;9.90;99.90;;;;;;5134900;27;20035;-61
2022/02/14 01:22:04;;;;;;;16.10;4.35;;;9.80;99.90;;;;;;5135219;27;20389;-62
2022/02/14 01:24:30;;;;;;;11.43;4.07;;;9.80;99.90;;;;;;5135021;27;20075;-60
2022/02/14 01:26:56;;;;;;;7.78;3.92;;;9.80;99.90;;;;;;5134805;27;20122;-61
2022/02/14 01:29:22;;;;;;;10.93;3.47;;;9.90;99.90;;;;;;5135273;27;20074;-62
2022/02/14 01:31:48;;;;;;;8.93;3.97;;;9.80;99.90;;;;;;5134470;27;20038;-62
2022/02/14 01:34:14;;;;;;;9.10;3.50;;;9.90;99.90;;;;;;5134690;27;20043;-61
2022/02/14 01:36:40;;;;;;;6.82;4.15;;;9.90;99.90;;;;;;5134909;27;20031;-61
2022/02/14 01:39:05;;;;;;;6.70;3.70;;;9.80;99.90;;;;;;5134641;27;20115;-62
2022/02/14 01:41:31;;;;;;;12.68;3.72;;;9.80;99.90;;;;;;5134418;27;20034;-61
2022/02/14 01:43:57;;;;;;;9.27;3.85;;;9.80;99.90;;;;;;5134254;27;20039;-61
2022/02/14 01:46:23;;;;;;;9.43;3.30;;;9.80;99.90;;;;;;5134226;27;20077;-61
2022/02/14 01:48:48;;;;;;;8.18;3.25;;;9.70;99.90;;;;;;5134359;27;20488;-61
2022/02/14 01:51:16;;;;;;;7.07;3.38;;;9.70;99.90;;;;;;5134453;27;20043;-61
2022/02/14 01:53:42;;;;;;;7.78;3.83;;;9.70;99.90;;;;;;5133756;27;20528;-61
2022/02/14 01:56:10;;;;;;;10.80;3.90;;;9.70;99.90;;;;;;5134489;27;20035;-61
2022/02/14 01:58:36;;;;;;;9.35;3.70;;;9.60;99.90;;;;;;5134268;27;20117;-62
2022/02/14 02:01:02;;;;;;;8.63;4.03;;;9.60;99.90;;;;;;5134380;27;20142;-61
2022/02/14 02:03:27;;;;;;;8.88;3.88;;;9.60;99.90;;;;;;5116345;27;20046;-61
2022/02/14 02:05:55;;;;;;;12.18;3.80;;;9.50;99.90;;;;;;5134098;27;20047;-61
2022/02/14 02:08:21;;;;;;;9.27;3.88;;;9.50;99.90;;;;;;5133994;27;20480;-61
2022/02/14 02:10:47;;;;;;;8.40;3.55;;;9.50;99.90;;;;;;5133736;27;20054;-61
2022/02/14 02:13:17;;;;;;;10.48;4.47;;;9.40;99.90;;;;;;5133783;27;20049;-62
2022/02/14 02:15:42;;;;;;;5.72;3.90;;;9.40;99.90;;;;;;5134122;27;20031;-61
2022/02/14 02:18:09;;;;;;;6.57;2.97;;;9.40;99.90;;;;;;5134077;27;20065;-61
2022/02/14 02:20:35;;;;;;;6.82;3.25;;;9.50;99.90;;;;;;5133966;27;20481;-61
2022/02/14 02:23:01;;;;;;;6.93;3.25;;;9.50;99.90;;;;;;5133945;27;20046;-61
2022/02/14 02:25:26;;;;;;;9.18;4.60;;;9.50;99.90;;;;;;5133782;27;20043;-61
2022/02/14 02:27:52;;;;;;;12.50;4.10;;;9.50;99.90;;;;;;5133831;27;20075;-60
2022/02/14 02:30:22;;;;;;;8.93;3.92;;;9.50;99.90;;;;;;5133763;27;20471;-61
2022/02/14 02:32:48;;;;;;;8.93;3.55;;;9.60;99.90;;;;;;5134113;27;20122;-61
2022/02/14 02:35:14;;;;;;;11.48;4.18;;;9.60;99.90;;;;;;5133775;27;20031;-61
2022/02/14 02:37:40;;;;;;;9.93;4.22;;;9.60;99.90;;;;;;5133320;27;20043;-61
2022/02/14 02:40:08;;;;;;;8.93;3.60;;;9.60;99.90;;;;;;5133572;27;20110;-62
2022/02/14 02:42:34;;;;;;;9.40;3.60;;;9.60;99.90;;;;;;5133419;27;20074;-61
2022/02/14 02:44:59;;;;;;;7.47;3.28;;;9.70;99.90;;;;;;5115502;27;20453;-61
2022/02/14 02:47:27;;;;;;;10.45;3.63;;;9.70;99.90;;;;;;5133672;27;20382;-62
2022/02/14 02:49:53;;;;;;;7.30;3.70;;;9.60;99.90;;;;;;5133638;27;20091;-61
2022/02/14 02:52:19;;;;;;;10.40;3.40;;;9.60;99.90;;;;;;5133871;27;20117;-62
2022/02/14 02:54:46;;;;;;;7.53;3.65;;;9.70;99.90;;;;;;5133246;27;20046;-61
2022/02/14 02:57:12;;;;;;;8.27;4.05;;;9.70;99.90;;;;;;5133213;27;20164;-61
2022/02/14 02:59:40;;;;;;;11.82;4.82;;;9.70;99.90;;;;;;5133753;27;20058;-61
2022/02/14 03:02:07;;;;;;;7.75;4.40;;;9.60;99.90;;;;;;5133631;28;20043;-61
2022/02/14 03:04:32;;;;;;;7.82;3.40;;;9.70;99.90;;;;;;5133305;27;20080;-61
2022/02/14 03:06:58;;;;;;;8.90;3.70;;;9.60;99.90;;;;;;5133555;28;20051;-61
2022/02/14 03:09:24;;;;;;;7.85;2.95;;;9.60;99.90;;;;;;5133199;28;20039;-62
2022/02/14 03:11:50;;;;;;;6.95;3.13;;;9.70;99.90;;;;;;5133195;28;20043;-61
2022/02/14 03:14:16;;;;;;;8.57;3.10;;;9.70;99.90;;;;;;5133406;28;20035;-61
2022/02/14 03:16:43;;;;;;;9.38;3.60;;;9.70;99.90;;;;;;5133824;28;20114;-61
2022/02/14 03:19:10;;;;;;;10.75;4.00;;;9.70;99.90;;;;;;5133185;28;20046;-60
2022/02/14 03:21:37;;;;;;;6.78;3.40;;;9.70;99.90;;;;;;5133488;28;20035;-61
2022/02/14 03:24:03;;;;;;;9.98;4.18;;;9.80;99.90;;;;;;5133033;28;20039;-61
2022/02/14 03:26:29;;;;;;;6.93;3.58;;;9.70;99.90;;;;;;5132918;28;20546;-62
2022/02/14 03:28:56;;;;;;;9.90;3.95;;;9.60;99.90;;;;;;5133389;28;20035;-60
2022/02/14 03:31:22;;;;;;;8.23;3.00;;;9.70;99.90;;;;;;5133124;28;20397;-61
2022/02/14 03:33:49;;;;;;;8.25;3.95;;;9.60;99.90;;;;;;5133000;28;20043;-61
2022/02/14 03:36:17;;;;;;;12.40;3.40;;;9.60;99.90;;;;;;5133523;28;20035;-61
2022/02/14 03:38:43;;;;;;;7.43;3.40;;;9.50;99.90;;;;;;5133134;28;20046;-60
2022/02/14 03:41:10;;;;;;;6.47;3.05;;;9.50;99.90;;;;;;5132900;28;20066;-62
2022/02/14 03:43:36;;;;;;;10.63;3.70;;;9.50;99.90;;;;;;5133476;28;20092;-61
2022/02/14 03:46:02;;;;;;;8.98;3.58;;;9.50;99.90;;;;;;5133293;28;20039;-62
2022/02/14 03:48:28;;;;;;;8.55;3.10;;;9.40;99.90;;;;;;5133199;28;20047;-61
2022/02/14 03:50:55;;;;;;;9.73;3.35;;;9.40;99.90;;;;;;5132866;28;20035;-61
2022/02/14 03:53:21;;;;;;;8.43;3.35;;;9.40;99.90;;;;;;5132807;28;20050;-61
2022/02/14 03:55:47;;;;;;;9.02;3.10;;;9.40;99.90;;;;;;5133092;28;20038;-61
2022/02/14 03:58:13;;;;;;;7.18;2.90;;;9.40;99.90;;;;;;5132998;28;20388;-61
2022/02/14 04:00:39;;;;;;;8.65;2.92;;;9.40;99.90;;;;;;5133011;28;20039;-61
2022/02/14 04:03:05;;;;;;;12.98;3.40;;;9.40;99.90;;;;;;5132920;28;20046;-61
2022/02/14 04:05:30;;;;;;;13.00;3.20;;;9.40;99.90;;;;;;5132032;28;20401;-61
2022/02/14 04:07:58;;;;;;;8.05;3.65;;;9.40;99.90;;;;;;5132433;28;20047;-61
2022/02/14 04:10:25;;;;;;;9.55;3.40;;;9.40;99.90;;;;;;5132661;28;20035;-62
2022/02/14 04:12:52;;;;;;;6.00;2.80;;;9.40;99.90;;;;;;5132381;28;20039;-62
2022/02/14 04:15:18;;;;;;;8.70;3.08;;;9.50;99.90;;;;;;5133217;27;20039;-61
2022/02/14 04:17:44;;;;;;;7.07;3.05;;;9.50;99.90;;;;;;5136312;27;20039;-62
2022/02/14 04:20:10;;;;;;;9.48;3.33;;;9.50;99.90;;;;;;5136783;27;20066;-61
2022/02/14 04:22:37;;;;;;;5.63;2.70;;;9.50;99.90;;;;;;5136085;27;20485;-61
2022/02/14 04:25:04;;;;;;;7.43;3.00;;;9.40;99.90;;;;;;5136668;27;20043;-61
2022/02/14 04:27:30;;;;;;;6.57;2.63;;;9.50;99.90;;;;;;5136247;27;20031;-61
2022/02/14 04:29:55;;;;;;;9.77;3.20;;;9.50;99.90;;;;;;5136104;27;20367;-61
2022/02/14 04:32:21;;;;;;;9.43;3.25;;;9.50;99.90;;;;;;5136327;27;20031;-61
2022/02/14 04:34:47;;;;;;;7.97;3.58;;;9.50;99.90;;;;;;5136136;27;20046;-62
2022/02/14 04:37:12;;;;;;;8.85;2.72;;;9.60;99.90;;;;;;5135618;27;20039;-61
2022/02/14 04:39:38;;;;;;;14.75;3.50;;;9.50;99.90;;;;;;5136077;27;20087;-61
2022/02/14 04:42:04;;;;;;;13.85;2.72;;;9.50;99.90;;;;;;5136010;27;20039;-61
2022/02/14 04:44:30;;;;;;;9.20;3.13;;;9.60;99.90;;;;;;5135883;27;20503;-61
2022/02/14 04:46:55;;;;;;;9.32;3.25;;;9.60;99.90;;;;;;5135895;27;20051;-61
2022/02/14 04:49:21;;;;;;;10.23;3.20;;;9.60;99.90;;;;;;5135876;27;20039;-61
2022/02/14 04:51:47;;;;;;;8.63;2.90;;;9.60;99.90;;;;;;5135457;27;20039;-61
2022/02/14 04:54:12;;;;;;;5.78;2.65;;;9.60;99.90;;;;;;5135655;27;20046;-61
2022/02/14 04:56:38;;;;;;;6.63;2.50;;;9.60;99.90;;;;;;5135568;27;20035;-61
2022/02/14 04:59:04;;;;;;;13.25;3.00;;;9.60;99.90;;;;;;5135540;27;20035;-61
2022/02/14 05:01:29;;;;;;;5.35;2.72;;;9.70;99.90;;;;;;5117011;27;20045;-61
2022/02/14 05:03:55;;;;;;;5.78;3.17;;;9.70;99.90;;;;;;5135936;27;20042;-62
2022/02/14 05:06:24;;;;;;;6.05;2.30;;;9.70;99.90;;;;;;5135349;27;20150;-62
2022/02/14 05:08:49;;;;;;;7.75;2.70;;;9.70;99.90;;;;;;5135221;27;20046;-61
2022/02/14 05:11:15;;;;;;;6.78;2.45;;;9.70;99.90;;;;;;5135035;27;20035;-61
2022/02/14 05:13:41;;;;;;;7.25;3.10;;;9.80;99.90;;;;;;5135617;27;20549;-61
2022/02/14 05:16:10;;;;;;;8.05;2.72;;;9.70;99.90;;;;;;5135092;27;20122;-61
2022/02/14 05:18:36;;;;;;;14.70;2.80;;;9.80;99.90;;;;;;5135110;27;20033;-61
2022/02/14 05:21:02;;;;;;;6.32;2.55;;;9.80;99.90;;;;;;5134599;27;20088;-62
2022/02/14 05:23:27;;;;;;;9.55;3.05;;;9.70;99.90;;;;;;5134682;27;20043;-61
2022/02/14 05:25:53;;;;;;;6.93;3.13;;;9.80;99.90;;;;;;5134743;27;20060;-61
2022/02/14 05:28:19;;;;;;;8.85;3.70;;;9.90;99.90;;;;;;5133344;27;20122;-61
2022/02/14 05:30:45;;;;;;;11.65;2.70;;;9.80;99.90;;;;;;5134481;27;20050;-62
2022/02/14 05:33:11;;;;;;;9.55;2.70;;;9.90;99.90;;;;;;5134299;27;20118;-61
2022/02/14 05:35:37;;;;;;;9.27;2.95;;;9.80;99.90;;;;;;5134535;27;20498;-61
2022/02/14 05:38:02;;;;;;;8.82;2.90;;;10.00;99.90;;;;;;5134824;27;20043;-61
2022/02/14 05:40:28;;;;;;;10.93;3.03;;;9.90;99.90;;;;;;5134853;27;20420;-61
2022/02/14 05:42:55;;;;;;;5.90;2.55;;;9.90;99.90;;;;;;5134732;27;20036;-62
2022/02/14 05:45:20;;;;;;;7.45;2.38;;;9.80;99.90;;;;;;5134456;27;20130;-61
2022/02/14 05:47:46;;;;;;;6.07;2.35;;;9.80;99.90;;;;;;5134344;27;20118;-62
2022/02/14 05:50:12;;;;;;;8.23;2.67;;;9.90;99.90;;;;;;5134304;27;20121;-61
2022/02/14 05:52:39;;;;;;;7.78;2.40;;;9.90;99.90;;;;;;5134451;27;20037;-61
2022/02/14 05:55:05;;;;;;;6.60;2.10;;;9.90;99.90;;;;;;5134118;27;20477;-61
2022/02/14 05:57:31;;;;;;;5.63;2.58;;;10.00;99.90;;;;;;5134402;27;20070;-61
2022/02/14 05:59:57;;;;;;;6.75;2.90;;;10.00;99.90;;;;;;5134120;27;20100;-61
2022/02/14 06:02:23;;;;;;;7.85;2.38;;;10.00;99.90;;;;;;5133909;27;20059;-61
2022/02/14 06:04:48;;;;;;;6.90;2.75;;;9.90;99.90;;;;;;5133653;27;20068;-60
2022/02/14 06:07:14;;;;;;;7.32;2.58;;;9.90;99.90;;;;;;5134264;27;20039;-62
2022/02/14 06:09:40;;;;;;;6.75;2.55;;;9.90;99.90;;;;;;5134308;27;20069;-61
2022/02/14 06:12:06;;;;;;;7.57;2.65;;;9.90;99.90;;;;;;5133911;27;20374;-61
2022/02/14 06:14:32;;;;;;;5.93;2.70;;;9.90;99.90;;;;;;5133863;27;20466;-62
2022/02/14 06:16:58;;;;;;;7.40;2.85;;;9.90;99.90;;;;;;5133753;27;20106;-61
2022/02/14 06:19:24;;;;;;;9.40;2.47;;;10.00;99.90;;;;;;5133881;27;20038;-61
2022/02/14 06:21:50;;;;;;;6.82;2.63;;;10.00;99.90;;;;;;5133940;27;20034;-61
2022/02/14 06:24:16;;;;;;;6.10;2.30;;;10.00;99.90;;;;;;5115267;27;20047;-61
2022/02/14 06:26:42;;;;;;;7.32;2.45;;;10.00;99.90;;;;;;5133487;27;20520;-62
2022/02/14 06:29:08;;;;;;;8.85;2.95;;;10.00;99.90;;;;;;5133861;27;20042;-61
2022/02/14 06:31:34;;;;;;;6.82;2.78;;;10.10;99.90;;;;;;5115099;27;20053;-61
2022/02/14 06:34:00;;;;;;;6.35;2.35;;;10.00;99.90;;;;;;5133556;27;20035;-61
2022/02/14 06:36:30;;;;;;;8.13;2.67;;;10.00;99.90;;;;;;5133326;27;20039;-62
2022/02/14 06:38:58;;;;;;;7.57;2.58;;;10.10;99.90;;;;;;5133266;27;20046;-62
2022/02/14 06:41:25;;;;;;;5.75;2.03;;;10.10;99.90;;;;;;5133433;27;20042;-62
2022/02/14 06:43:53;;;;;;;5.30;2.90;;;10.00;99.90;;;;;;5133491;27;20043;-61
2022/02/14 06:46:19;;;;;;;7.53;2.45;;;10.10;99.90;;;;;;5133339;27;20085;-61
2022/02/14 06:48:44;;;;;;;5.68;2.70;;;10.10;99.90;;;;;;5133803;27;20061;-62
2022/02/14 06:51:11;;;;;;;6.65;2.45;;;10.10;99.90;;;;;;5133662;27;20047;-61
2022/02/14 06:53:37;;;;;;;4.10;2.17;;;10.10;99.90;;;;;;5133328;27;20035;-61
2022/02/14 06:56:07;;;;;;;5.28;2.30;;;10.10;99.90;;;;;;5114889;27;20064;-61
2022/02/14 06:58:37;;;;;;;7.15;2.50;;;10.20;99.90;;;;;;5133269;27;20043;-61
2022/02/14 07:01:04;;;;;;;6.00;2.28;;;10.20;99.90;;;;;;5132983;27;20043;-62
2022/02/14 07:03:30;;;;;;;5.75;2.25;;;10.30;99.90;;;;;;5133055;28;20374;-61
2022/02/14 07:05:56;;;;;;;5.57;2.28;;;10.30;99.90;;;;;;5132982;28;20051;-61
2022/02/14 07:08:21;;;;;;;5.10;2.28;;;10.20;99.90;;;;;;5132973;28;20112;-62
2022/02/14 07:10:47;;;;;;;12.82;2.95;;;10.20;99.90;;;;;;5133169;28;20074;-62
2022/02/14 07:13:13;;;;;;;6.03;2.15;;;10.30;99.90;;;;;;5133252;28;20066;-61
2022/02/14 07:15:39;;;;;;;4.78;2.10;;;10.30;99.90;;;;;;5114213;28;20088;-61
2022/02/14 07:18:11;;;;;;;6.75;2.60;;;10.30;99.90;;;;;;5133390;28;20038;-62
2022/02/14 07:20:36;;;;;;;6.32;2.17;;;10.30;99.90;;;;;;5133239;28;20039;-62
2022/02/14 07:23:02;;;;;;;6.38;2.15;;;10.30;99.90;;;;;;5133242;28;20039;-62
2022/02/14 07:25:28;;;;;;;6.63;1.95;;;10.20;99.90;;;;;;5133127;28;20522;-62
2022/02/14 07:27:54;;;;;;;5.72;2.00;;;10.30;99.90;;;;;;5132858;28;20043;-62
2022/02/14 07:30:20;;;;;;;5.78;2.45;;;10.30;99.90;;;;;;5133246;28;20042;-62
2022/02/14 07:32:45;;;;;;;10.10;2.70;;;10.40;99.90;;;;;;5133240;28;20046;-62
2022/02/14 07:35:13;;;;;;;5.68;2.08;;;10.40;99.90;;;;;;5133133;28;20027;-60
2022/02/14 07:37:39;;;;;;;6.07;2.30;;;10.30;99.90;;;;;;5132665;28;20042;-61
2022/02/14 07:40:06;;;;;;;5.75;2.50;;;10.30;99.90;;;;;;5132731;28;20448;-61
2022/02/14 07:42:31;;;;;;;7.28;2.15;;;10.30;99.90;;;;;;5114544;28;20156;-61
2022/02/14 07:44:57;;;;;;;6.72;2.15;;;10.30;99.90;;;;;;5133008;28;20125;-61
2022/02/14 07:47:23;;;;;;;5.72;1.90;;;10.30;99.90;;;;;;5132514;28;20181;-61
2022/02/14 07:49:49;;;;;;;4.18;2.08;;;10.30;99.90;;;;;;5133023;27;20493;-63
2022/02/14 07:52:15;;;;;;;8.10;2.20;;;10.30;99.90;;;;;;5136553;27;20118;-59
2022/02/14 07:54:41;;;;;;;5.18;2.15;;;10.30;99.90;;;;;;5136317;27;20127;-60
2022/02/14 07:57:07;;;;;;;4.93;2.05;;;10.30;99.90;;;;;;5117825;27;20035;-60
2022/02/14 07:59:33;;;;;;;6.63;2.38;;;10.30;99.90;;;;;;5136750;27;20039;-60
2022/02/14 08:01:59;;;;;;;8.82;2.63;;;10.30;99.90;;;;;;5136538;27;20047;-60
2022/02/14 08:04:24;;;;;;;6.40;2.40;;;10.20;99.90;;;;;;5117872;27;20397;-61
2022/02/14 08:06:50;;;;;;;6.50;2.63;;;10.20;99.90;;;;;;5136424;27;20436;-61
2022/02/14 08:09:17;;;;;;;3.10;2.10;;;10.20;99.90;;;;;;5136223;27;20126;-61
2022/02/14 08:11:43;;;;;;;7.22;2.20;;;10.20;99.90;;;;;;5135941;27;20031;-61
2022/02/14 08:14:10;;;;;;;4.43;2.15;;;10.20;99.90;;;;;;5136299;27;20051;-62
2022/02/14 08:16:35;;;;;;;3.67;2.10;;;10.20;99.90;;;;;;5117624;27;20043;-62
2022/02/14 08:19:02;;;;;;;8.05;2.28;;;10.20;99.90;;;;;;5117986;27;20069;-62
2022/02/14 08:21:31;;;;;;;5.63;2.50;;;10.20;99.90;;;;;;5135981;27;20035;-61
2022/02/14 08:23:58;;;;;;;6.05;2.05;;;10.20;99.90;;;;;;5136283;27;20039;-61
2022/02/14 08:26:24;;;;;;;4.32;2.03;;;10.20;99.90;;;;;;5136042;27;20051;-61
2022/02/14 08:28:49;;;;;;;6.65;2.25;;;10.20;99.90;;;;;;5135736;27;20050;-52
2022/02/14 08:31:15;;;;;;;2.88;1.83;;;10.20;99.90;;;;;;5135790;27;20043;-53
2022/02/14 08:33:41;;;;;;;5.90;2.33;;;10.20;99.90;;;;;;5135491;27;20118;-53
2022/02/14 08:36:07;;;;;;;4.70;1.88;;;10.20;99.90;;;;;;5135558;27;20055;-50
2022/02/14 08:38:35;;;;;;;6.05;2.00;;;10.20;99.90;;;;;;5135873;27;20031;-53
2022/02/14 08:41:01;;;;;;;3.67;1.93;;;10.20;99.90;;;;;;5135318;27;20042;-53
2022/02/14 08:43:27;;;;;;;8.98;2.92;;;10.20;99.90;;;;;;5135362;27;20122;-53
2022/02/14 08:45:53;;;;;;;7.38;2.30;;;10.20;99.90;;;;;;5135246;27;20148;-54
2022/02/14 08:48:18;;;;;;;14.07;2.53;;;10.20;99.90;;;;;;5135300;27;20125;-52
2022/02/14 08:50:44;;;;;;;5.30;2.40;;;10.10;99.90;;;;;;5135163;27;20046;-52
2022/02/14 08:53:11;;;;;;;3.47;2.03;;;10.10;99.90;;;;;;5116541;27;20058;-52
2022/02/14 08:55:37;;;;;;;4.90;2.35;;;10.00;99.90;;;;;;5134909;27;20066;-51
2022/02/14 08:58:03;;;;;;;4.18;2.20;;;9.90;99.90;;;;;;5135123;27;20047;-53
2022/02/14 09:00:29;;;;;;;6.40;2.28;;;9.90;99.90;;;;;;5135080;27;20043;-53
2022/02/14 09:02:55;;;;;;;6.72;2.80;;;9.70;99.90;;;;;;5134469;27;20065;-53
2022/02/14 09:05:21;;;;;;;10.45;3.35;;;9.50;99.90;;;;;;5134706;27;20055;-53
2022/02/14 09:07:47;;;;;;;8.77;2.78;;;9.40;99.90;;;;;;5116260;27;20058;-53
2022/02/14 09:10:12;;;;;;;5.57;2.55;;;9.30;99.90;;;;;;5134921;27;20386;-52
2022/02/14 09:12:38;;;;;;;4.75;2.72;;;9.20;99.90;;;;;;5134562;27;20485;-50
2022/02/14 09:15:05;;;;;;;5.22;2.47;;;9.00;99.90;;;;;;5134594;27;20043;-52
2022/02/14 09:17:31;;;;;;;5.35;3.28;;;8.90;99.90;;;;;;5134758;27;20035;-53
2022/02/14 09:19:56;;;;;;;6.65;3.63;;;8.90;99.90;;;;;;5116060;27;20099;-51
2022/02/14 09:22:22;;;;;;;7.72;3.60;;;8.90;99.90;;;;;;5134712;27;20150;-54
2022/02/14 09:24:48;;;;;;;6.65;3.72;;;8.90;99.90;;;;;;5134843;27;20046;-51
2022/02/14 09:27:14;;;;;;;7.63;3.60;;;8.80;99.90;;;;;;5134548;27;20106;-53
2022/02/14 09:29:39;;;;;;;4.60;3.80;;;8.80;99.90;;;;;;5134741;27;20043;-53
2022/02/14 09:32:06;;;;;;;5.70;3.50;;;8.80;99.90;;;;;;5134469;27;20043;-53
2022/02/14 09:34:32;;;;;;;7.40;3.47;;;8.80;99.90;;;;;;5134154;27;20046;-52
2022/02/14 09:36:58;;;;;;;5.95;3.28;;;8.80;99.90;;;;;;5134122;27;20035;-52
2022/02/14 09:39:29;;;;;;;5.03;3.75;;;8.80;99.90;;;;;;5134132;27;20561;-51
2022/02/14 09:42:00;;;;;;;6.15;3.45;;;8.80;99.90;;;;;;5134331;27;20366;-53
2022/02/14 09:44:27;;;;;;;7.25;3.95;;;8.80;99.90;;;;;;5134379;27;20043;-52
2022/02/14 09:46:53;;;;;;;5.45;2.90;;;8.80;99.90;;;;;;5134269;27;20048;-51
2022/02/14 09:49:20;;;;;;;3.78;3.20;;;8.90;99.90;;;;;;5133921;27;20043;-53
2022/02/14 09:51:47;;;;;;;6.65;3.15;;;8.80;99.90;;;;;;5134071;27;20039;-52
2022/02/14 09:54:12;;;;;;;7.35;2.65;;;8.80;99.90;;;;;;5133951;27;20385;-54
2022/02/14 09:56:39;;;;;;;6.70;2.58;;;8.80;99.90;;;;;;5133813;27;20039;-52
2022/02/14 09:59:06;;;;;;;7.28;2.95;;;8.80;99.90;;;;;;5133911;27;20043;-50
2022/02/14 10:01:32;;;;;;;6.82;3.05;;;8.80;99.90;;;;;;5133719;27;20392;-53
2022/02/14 10:04:00;;;;;;;8.15;2.80;;;8.80;99.90;;;;;;5133790;27;20424;-53
2022/02/14 10:06:27;;;;;;;4.95;2.47;;;8.80;99.90;;;;;;5133498;27;20066;-51
2022/02/14 10:09:11;;;;;;;6.28;2.83;;;8.90;99.90;;;;;;5133698;27;20045;-52
2022/02/14 10:11:42;;;;;;;5.68;2.92;;;9.00;99.90;;;;;;5133675;27;20046;-53
2022/02/14 10:14:17;;;;;;;5.88;3.05;;;9.00;99.90;;;;;;5132946;27;20072;-51
2022/02/14 10:17:01;;;;;;;8.75;2.78;;;9.10;99.90;;;;;;5133217;27;20036;-52
2022/02/14 10:19:28;;;;;;;5.38;2.70;;;9.20;99.90;;;;;;5114729;27;20061;-52
2022/02/14 10:21:54;;;;;;;4.93;2.60;;;9.20;99.90;;;;;;5133587;27;20062;-51
2022/02/14 10:24:20;;;;;;;6.35;2.30;;;9.30;99.90;;;;;;5133655;27;20371;-52
2022/02/14 10:26:49;;;;;;;6.68;2.17;;;9.30;99.90;;;;;;5114520;27;20043;-53
2022/02/14 10:29:22;;;;;;;5.32;2.10;;;9.40;99.90;;;;;;5133229;27;20468;-51
2022/02/14 10:31:59;;;;;;;9.52;1.90;;;9.40;99.90;;;;;;5133480;27;20371;-53
2022/02/14 10:34:38;;;;;;;6.97;2.13;;;9.40;99.90;;;;;;5132993;27;20039;-53
2022/02/14 10:37:06;;;;;;;7.07;2.03;;;9.50;99.90;;;;;;5114699;27;20067;-53
2022/02/14 10:39:32;;;;;;;4.72;1.73;;;9.60;99.90;;;;;;5132976;27;20031;-50
2022/02/14 10:42:03;;;;;;;4.95;1.58;;;9.70;99.90;;;;;;5133013;27;20043;-51
2022/02/14 10:47:33;;;;;;;12.07;2.55;;;9.90;99.90;;;;;;5132976;27;20082;-53
2022/02/14 10:50:21;;;;;;;4.95;1.33;;;10.00;99.90;;;;;;5114217;27;20047;-51
2022/02/14 10:52:56;;;;;;;4.53;1.50;;;10.10;99.90;;;;;;5133105;27;20113;-53
2022/02/14 10:55:21;;;;;;;5.75;1.52;;;10.10;99.90;;;;;;5132983;27;20449;-51
2022/02/14 10:57:49;;;;;;;3.17;1.50;;;10.20;99.90;;;;;;5132841;27;20114;-53
2022/02/14 11:00:17;;;;;;;7.20;1.60;;;10.20;99.90;;;;;;5132861;27;20042;-53
2022/02/14 11:02:46;;;;;;;4.18;1.40;;;10.20;99.90;;;;;;5132581;27;20390;-52
2022/02/14 11:05:13;;;;;;;3.30;1.58;;;10.10;99.90;;;;;;5132728;28;20051;-52
2022/02/14 11:07:40;;;;;;;2.97;1.42;;;10.10;99.90;;;;;;5132907;28;20058;-52
2022/02/14 11:10:15;;;;;;;4.93;2.28;;;10.10;99.90;;;;;;5132764;28;20049;-54
2022/02/14 11:12:48;;;;;;;6.70;1.73;;;10.10;99.90;;;;;;5132671;28;20042;-52
2022/02/14 11:15:14;;;;;;;4.13;1.60;;;10.00;99.90;;;;;;5132821;28;20039;-52
2022/02/14 11:17:48;;;;;;;3.90;1.92;;;10.10;99.90;;;;;;5132886;28;20027;-53
2022/02/14 11:20:15;;;;;;;4.50;1.80;;;10.10;99.90;;;;;;5132738;28;20390;-53
2022/02/14 11:22:47;;;;;;;4.45;1.77;;;10.00;99.90;;;;;;5132541;28;20582;-52
2022/02/14 11:25:34;;;;;;;3.72;1.80;;;10.00;99.90;;;;;;5135079;27;20043;-54
2022/02/14 11:28:17;;;;;;;6.63;3.00;;;10.00;99.90;;;;;;5118229;27;20489;-50
2022/02/14 11:31:06;;;;;;;8.63;2.75;;;10.10;99.90;;;;;;5136900;27;20065;-51
2022/02/14 11:33:32;;;;;;;4.40;2.00;;;10.00;99.90;;;;;;5136463;27;20031;-48
2022/02/14 11:36:06;;;;;;;6.40;1.67;;;10.10;99.90;;;;;;5117732;27;20049;-49
2022/02/14 11:38:42;;;;;;;5.05;2.13;;;10.00;99.90;;;;;;5136894;27;20096;-48
2022/02/14 11:41:33;;;;;;;8.80;2.70;;;10.00;99.90;;;;;;5136388;27;20152;-51
2022/02/14 11:44:20;;;;;;;5.75;1.95;;;10.00;99.90;;;;;;5136427;27;20043;-51
2022/02/14 11:46:55;;;;;;;5.78;1.95;;;10.10;99.90;;;;;;5136358;27;20552;-51
2022/02/14 11:49:43;;;;;;;6.57;1.98;;;10.10;99.90;;;;;;5136284;27;20039;-51
2022/02/14 11:52:30;;;;;;;5.90;2.15;;;10.10;99.90;;;;;;5136313;27;20035;-51
2022/02/14 11:55:08;;;;;;;5.57;2.13;;;10.10;99.90;;;;;;5136273;27;20434;-50
2022/02/14 11:57:38;;;;;;;8.07;2.42;;;10.10;99.90;;;;;;5136183;27;20043;-51
2022/02/14 12:00:10;;;;;;;3.78;1.80;;;10.20;99.90;;;;;;5136070;27;20031;-51
2022/02/14 12:02:36;;;;;;;7.15;2.00;;;10.20;99.90;;;;;;5136086;27;20039;-50
2022/02/14 12:05:01;;;;;;;5.00;1.90;;;10.20;99.90;;;;;;5116937;27;20485;-52
2022/02/14 12:07:33;;;;;;;5.30;1.80;;;10.20;99.90;;;;;;5136126;27;20449;-51
2022/02/14 12:09:58;;;;;;;5.40;2.30;;;10.30;99.90;;;;;;5136089;27;20050;-50
2022/02/14 12:12:45;;;;;;;6.07;2.08;;;10.60;99.90;;;;;;5135693;27;20405;-50
2022/02/14 12:20:48;;;;;;;7.18;2.28;;;10.40;99.90;;;;;;5135891;27;20043;-50
2022/02/14 12:23:26;;;;;;;5.47;2.07;;;10.20;99.90;;;;;;5135532;27;20525;-52
2022/02/14 12:25:51;;;;;;;9.20;2.65;;;10.10;99.90;;;;;;5135481;27;20066;-52
2022/02/14 12:28:17;;;;;;;5.18;2.47;;;10.10;99.90;;;;;;5135645;27;20119;-52
2022/02/14 12:30:44;;;;;;;7.50;2.60;;;10.10;99.90;;;;;;5135614;27;20046;-50
2022/02/14 12:33:12;;;;;;;6.72;2.80;;;10.00;99.90;;;;;;5135416;27;20113;-52
2022/02/14 12:36:07;;;;;;;5.53;2.67;;;9.90;99.90;;;;;;5135019;27;20084;-52
2022/02/14 12:38:35;;;;;;;26.15;3.55;;;10.00;99.90;;;;;;5035564;28;20057;-50
2022/02/14 12:41:03;;;;;;;6.60;2.83;;;9.90;99.90;;;;;;5051875;28;20045;-52
2022/02/14 12:43:36;;;;;;;6.80;2.83;;;9.80;99.90;;;;;;5051863;28;20056;-50
2022/02/14 12:46:07;;;;;;;6.57;2.90;;;9.80;99.90;;;;;;5051829;28;20045;-51
2022/02/14 12:48:44;;;;;;;4.20;2.42;;;9.70;99.90;;;;;;5035362;28;20054;-50
2022/02/14 12:51:12;;;;;;;11.90;2.70;;;9.70;99.90;;;;;;5051649;28;20044;-50
2022/02/14 12:53:44;;;;;;;7.68;2.47;;;9.70;99.90;;;;;;5051701;28;20044;-51
2022/02/14 12:56:27;;;;;;;8.32;2.15;;;9.60;99.90;;;;;;5051685;28;20056;-48
2022/02/14 12:58:55;;;;;;;5.75;1.85;;;9.60;99.90;;;;;;5051596;28;20033;-53
2022/02/14 13:01:27;;;;;;;6.88;2.13;;;9.60;99.90;;;;;;5051421;28;20067;-51
2022/02/14 13:04:00;;;;;;;8.15;1.90;;;9.50;99.90;;;;;;5051452;28;20048;-51